Список аэропортов
Фактическая погода:

19 августа, 04:20
Температура: +14°C (+13.3*)
Ветер: юго-восточный 3 м/с
Давление: *758 мм
Без существ. явл.
Время (МСК)Темп. СВетерВлажностьДавлениеОблачностьОсадки
03:00+14В, 3 м/с84%1011 гПас прояснениями
04:00+14В, 3 м/с87%1010 гПаоблачно
05:00+14В, 4 м/с86%1010 гПаоблачно
06:00+14В, 4 м/с84%1010 гПаоблачно
07:00+15В, 4 м/с80%1009 гПаоблачно
08:00+16ЮВ, 5 м/с76%1008 гПаоблачно
09:00+17ЮВ, 5 м/с72%1008 гПаоблачносл. дождь
10:00+17ЮВ, 6 м/с73%1007 гПаоблачнодождь
11:00+16ЮВ, 5 м/с86%1007 гПаоблачнодождь
12:00+16ЮВ, 6 м/с87%1006 гПаоблачнодождь
13:00+15ЮВ, 6 м/с90%1006 гПаоблачносл. дождь
14:00+15ЮВ, 6 м/с91%1006 гПаоблачносл. дождь
15:00+16ЮВ, 6 м/с92%1006 гПаоблачно
16:00+16ЮВ, 5 м/с92%1006 гПаоблачно
17:00+16ЮВ, 5 м/с92%1006 гПаоблачно
18:00+16Ю, 4 м/с92%1007 гПаоблачно
19:00+16Ю, 4 м/с93%1007 гПаоблачно
20:00+16ЮВ, 3 м/с93%1007 гПаоблачно
21:00+16ЮВ, 3 м/с95%1007 гПас прояснениями
22:00+15ЮВ, 3 м/с97%1007 гПаоблачно
23:00+16ЮВ, 3 м/с97%1008 гПаоблачно
20 августа
00:00+16ЮВ, 3 м/с96%1008 гПаоблачно
01:00+16Ю, 3 м/с96%1008 гПас прояснениями
02:00+15Ю, 3 м/с96%1009 гПас прояснениями
03:00+15Ю, 2 м/с97%1009 гПамалооблачно
04:00+14Ю, 2 м/с98%1010 гПас прояснениями
05:00+14Ю, 2 м/с98%1010 гПас прояснениями
06:00+14Ю, 2 м/с96%1010 гПаоблачно
07:00+14Ю, 2 м/с94%1010 гПаоблачно
08:00+15Ю, 3 м/с89%1011 гПас прояснениями
09:00+16Ю, 3 м/с81%1011 гПас прояснениями
10:00+17Ю, 4 м/с72%1011 гПас прояснениями
11:00+18Ю, 4 м/с65%1011 гПамалооблачно
12:00+20Ю, 4 м/с58%1011 гПаясно
13:00+20Ю, 5 м/с53%1011 гПас прояснениями
14:00+21Ю, 4 м/с50%1011 гПас прояснениями
15:00+21Ю, 5 м/с50%1011 гПаясно
16:00+21Ю, 5 м/с54%1011 гПас прояснениямидождь
17:00+18Ю, 4 м/с79%1012 гПаоблачнодождь
18:00+18Ю, 4 м/с89%1012 гПаоблачнодождь
19:00+18ЮЗ, 4 м/с92%1013 гПаоблачнодождь
20:00+16ЮЗ, 3 м/с92%1013 гПас прояснениями
21:00+16Ю, 3 м/с91%1014 гПаоблачно
22:00+15Ю, 3 м/с93%1014 гПаоблачно
23:00+15Ю, 3 м/с94%1014 гПас прояснениями
21 августа
00:00+15Ю, 4 м/с95%1015 гПаоблачно
01:00+15Ю, 4 м/с94%1015 гПаоблачно
02:00+15Ю, 4 м/с94%1015 гПас прояснениями
03:00+15Ю, 4 м/с94%1016 гПаоблачно